Time;durP1;ratioP1;P1;durP2;ratioP2;P2;SDS_P1;SDS_P2;PMS_P1;PMS_P2;Temp;Humidity;BMP_temperature;BMP_pressure;BME280_temperature;BME280_humidity;BME280_pressure;Samples;Min_cycle;Max_cycle;Signal;HPM_P1;HPM_P2
2023/02/07 06:59:29;;;;;;;;;4.50;2.50;;;;;17.68;44.12;103223.63;5072833;27;45512;-75
2023/02/07 07:01:55;;;;;;;;;4.75;2.00;;;;;18.01;44.14;103218.56;5058938;27;45407;-77
2023/02/07 07:04:20;;;;;;;;;2.00;2.00;;;;;18.55;44.35;103220.53;5044580;27;45597;-77
2023/02/07 07:06:45;;;;;;;;;2.00;2.00;;;;;19.11;44.30;103208.84;5047983;28;45475;-78
2023/02/07 07:09:11;;;;;;;;;2.00;2.00;;;;;19.65;44.19;103212.38;5046176;27;46156;-77
2023/02/07 07:11:41;;;;;;;;;3.50;2.50;;;;;20.17;44.22;103215.88;5058848;28;45512;-78
2023/02/07 07:14:07;;;;;;;;;3.00;3.00;;;;;20.70;43.63;103215.59;5042490;27;45523;-75
2023/02/07 07:16:32;;;;;;;;;4.00;4.00;;;;;21.12;43.49;103214.03;5047566;28;45324;-76
2023/02/07 07:18:58;;;;;;;;;2.67;2.67;;;;;21.45;43.68;103217.47;5046709;27;46223;-76
2023/02/07 07:21:25;;;;;;;;;2.33;2.33;;;;;21.84;43.36;103231.34;5027335;27;45522;-77
2023/02/07 07:23:50;;;;;;;;;2.00;2.00;;;;;22.13;43.12;103228.59;5045600;27;45440;-71
2023/02/07 07:26:16;;;;;;;;;4.33;4.00;;;;;22.38;42.17;103227.00;5041721;27;45437;-71
2023/02/07 07:28:41;;;;;;;;;4.33;3.33;;;;;22.58;42.03;103232.97;5032966;27;45604;-72
2023/02/07 07:31:07;;;;;;;;;6.00;5.00;;;;;22.75;42.14;103242.66;5027375;28;45517;-72
2023/02/07 07:33:33;;;;;;;;;5.00;3.33;;;;;22.87;41.86;103241.84;5038248;27;45326;-71
2023/02/07 07:36:00;;;;;;;;;5.00;3.00;;;;;22.98;41.56;103240.25;5047366;28;45501;-71
2023/02/07 07:38:26;;;;;;;;;4.00;4.00;;;;;23.01;41.44;103231.94;5033341;27;45388;-71
2023/02/07 07:40:52;;;;;;;;;6.00;5.00;;;;;23.12;41.39;103237.47;5032551;27;45736;-72
2023/02/07 07:43:18;;;;;;;;;6.00;4.00;;;;;23.20;41.10;103239.66;5046115;27;45836;-71
2023/02/07 07:45:45;;;;;;;;;8.33;6.67;;;;;23.27;41.17;103245.50;5046765;27;45554;-72
2023/02/07 07:48:10;;;;;;;;;8.00;5.00;;;;;23.10;40.54;103215.03;5056087;27;45413;-72
2023/02/07 07:50:35;;;;;;;;;8.00;5.00;;;;;23.40;40.58;103242.84;5046738;27;45420;-71
2023/02/07 07:53:01;;;;;;;;;5.67;3.67;;;;;23.48;40.60;103251.31;5034247;27;45453;-72
2023/02/07 07:55:26;;;;;;;;;6.00;5.00;;;;;23.50;40.39;103245.78;5043363;27;45392;-71
2023/02/07 07:57:52;;;;;;;;;7.00;5.67;;;;;23.55;40.40;103241.75;5046590;28;45444;-73
2023/02/07 08:00:17;;;;;;;;;6.67;4.33;;;;;23.56;40.53;103226.38;5047554;28;47146;-73
2023/02/07 08:02:43;;;;;;;;;3.33;3.33;;;;;23.67;40.29;103248.16;5045834;27;45589;-77
2023/02/07 08:05:08;;;;;;;;;4.67;3.33;;;;;23.73;40.12;103248.69;5034577;27;45541;-76
2023/02/07 08:07:34;;;;;;;;;8.67;5.00;;;;;23.76;40.21;103243.94;5054655;28;46353;-84
2023/02/07 08:09:59;;;;;;;;;4.67;4.67;;;;;23.89;40.08;103259.31;5013333;27;45682;-87
2023/02/07 08:12:24;;;;;;;;;5.00;5.00;;;;;23.95;39.99;103237.19;5011345;27;45348;-88
2023/02/07 08:14:50;;;;;;;;;4.00;4.00;;;;;24.04;39.91;103254.66;5031593;28;45488;-87
2023/02/07 08:17:16;;;;;;;;;5.00;4.00;;;;;24.13;39.91;103266.69;5027746;27;45842;-85
2023/02/07 08:19:41;;;;;;;;;7.00;4.00;;;;;24.18;40.08;103275.38;5032770;28;45370;-85
2023/02/07 08:22:06;;;;;;;;;4.00;4.00;;;;;24.21;39.74;103259.72;5044751;27;45515;-88
2023/02/07 08:24:33;;;;;;;;;6.67;4.00;;;;;24.29;39.57;103263.72;5018013;27;45821;-90
2023/02/07 08:26:58;;;;;;;;;7.33;4.00;;;;;24.34;39.69;103251.56;5011826;27;46315;-90
2023/02/07 08:29:24;;;;;;;;;4.00;4.00;;;;;24.39;39.76;103250.38;5032711;27;45439;-86
2023/02/07 08:31:49;;;;;;;;;4.33;2.67;;;;;24.47;39.55;103261.50;5035348;28;45486;-88
2023/02/07 08:34:14;;;;;;;;;3.67;3.67;;;;;24.49;39.48;103248.69;5033570;27;45734;-88
2023/02/07 08:36:39;;;;;;;;;5.33;3.33;;;;;24.51;39.65;103246.72;5033018;28;46189;-89
2023/02/07 08:39:05;;;;;;;;;4.33;2.67;;;;;24.58;39.32;103256.16;5031188;27;45327;-82
2023/02/07 08:41:30;;;;;;;;;4.67;4.00;;;;;24.59;39.41;103254.28;5045766;27;45350;-83
2023/02/07 08:43:55;;;;;;;;;2.67;2.67;;;;;24.63;39.49;103250.34;5043724;27;45443;-82
2023/02/07 08:46:21;;;;;;;;;7.00;5.00;;;;;24.66;39.52;103250.16;5014505;28;46791;-81
2023/02/07 08:48:46;;;;;;;;;5.33;4.33;;;;;24.69;39.16;103251.75;5031172;27;45420;-78
2023/02/07 08:51:11;;;;;;;;;3.33;3.33;;;;;24.71;39.21;103257.94;5028107;27;45367;-83
2023/02/07 08:53:37;;;;;;;;;2.33;2.33;;;;;24.77;39.00;103262.88;5028541;27;45395;-77
2023/02/07 08:56:02;;;;;;;;;2.33;2.33;;;;;24.82;39.17;103262.56;5038600;27;46129;-76
2023/02/07 08:58:28;;;;;;;;;4.33;4.00;;;;;24.80;39.23;103268.09;5032315;28;45374;-79
2023/02/07 09:00:53;;;;;;;;;5.00;3.00;;;;;24.81;38.74;103272.53;5032790;27;45635;-86
2023/02/07 09:03:19;;;;;;;;;2.67;2.67;;;;;24.82;38.86;103270.69;5045515;28;45333;-88
2023/02/07 09:05:44;;;;;;;;;1.00;1.00;;;;;24.85;38.87;103271.34;5033902;27;45668;-85
2023/02/07 09:08:09;;;;;;;;;4.00;3.00;;;;;24.89;38.94;103274.69;5013282;27;45367;-80
2023/02/07 09:10:35;;;;;;;;;5.00;3.00;;;;;24.90;38.83;103276.47;5013960;27;45278;-82
2023/02/07 09:13:00;;;;;;;;;5.00;3.00;;;;;24.95;38.48;103281.53;5037972;28;45673;-81
2023/02/07 09:15:26;;;;;;;;;4.00;4.00;;;;;24.98;38.82;103292.16;5027305;27;45488;-82
2023/02/07 09:17:51;;;;;;;;;4.67;3.33;;;;;25.03;38.60;103302.66;5032110;28;45410;-84
2023/02/07 09:20:17;;;;;;;;;3.00;3.00;;;;;25.05;38.66;103296.13;5016158;27;45596;-83
2023/02/07 09:25:27;;;;;;;;;2.33;2.00;;;;;25.08;38.44;103295.03;5032596;28;45354;-81
2023/02/07 09:27:52;;;;;;;;;2.00;2.00;;;;;25.10;38.78;103293.94;5029747;27;45423;-82
2023/02/07 09:30:17;;;;;;;;;5.00;3.33;;;;;25.12;38.09;103286.53;5032316;27;45410;-80
2023/02/07 09:32:43;;;;;;;;;2.00;1.33;;;;;25.16;38.42;103287.16;5036725;27;45614;-82
2023/02/07 09:35:08;;;;;;;;;5.00;3.00;;;;;25.19;38.36;103283.34;4995333;28;47593;-86
2023/02/07 09:37:34;;;;;;;;;3.67;3.00;;;;;25.20;38.65;103285.06;5034630;28;45440;-82
2023/02/07 09:40:00;;;;;;;;;3.00;3.00;;;;;25.23;38.28;103293.00;5028017;27;45493;-81
2023/02/07 09:42:42;;;;;;;;;5.33;3.00;;;;;25.23;38.36;103293.88;5041067;27;45556;-83
2023/02/07 09:45:19;;;;;;;;;3.67;3.67;;;;;25.26;38.21;103307.22;5030803;27;45738;-75
2023/02/07 09:47:49;;;;;;;;;5.00;3.67;;;;;25.25;38.12;103310.03;5036674;28;45590;-75
2023/02/07 09:50:24;;;;;;;;;3.00;3.00;;;;;25.22;37.72;103316.59;5045339;28;45479;-75
2023/02/07 09:52:56;;;;;;;;;4.00;4.00;;;;;25.22;37.73;103318.44;5052085;28;45497;-75
2023/02/07 09:55:48;;;;;;;;;3.33;3.00;;;;;25.20;37.83;103309.53;5025617;28;45513;-75
2023/02/07 09:58:19;;;;;;;;;4.33;4.33;;;;;25.21;37.68;103316.69;5020606;27;45760;-80
2023/02/07 10:00:54;;;;;;;;;3.33;3.33;;;;;25.20;37.63;103320.41;5030663;27;45445;-75
2023/02/07 10:03:23;;;;;;;;;4.33;4.00;;;;;25.16;37.49;103329.78;5031837;28;45364;-78
2023/02/07 10:05:58;;;;;;;;;5.00;3.00;;;;;25.09;37.50;103327.53;5031775;28;45412;-75
2023/02/07 10:08:24;;;;;;;;;2.67;2.67;;;;;25.00;37.34;103326.38;5032724;28;45552;-77
2023/02/07 10:11:18;;;;;;;;;3.67;3.67;;;;;25.03;37.21;103330.72;5022969;27;45523;-78
2023/02/07 10:14:06;;;;;;;;;3.00;3.00;;;;;25.01;37.04;103327.25;5031457;28;45590;-77
2023/02/07 10:16:57;;;;;;;;;2.00;2.00;;;;;24.96;37.13;103333.03;5032157;28;46353;-76
2023/02/07 10:19:32;;;;;;;;;6.00;6.00;;;;;24.94;37.08;103331.41;5011089;28;45486;-76
2023/02/07 10:22:16;;;;;;;;;4.00;3.33;;;;;24.91;37.08;103321.66;5033121;27;45538;-76
2023/02/07 10:25:14;;;;;;;;;5.00;5.00;;;;;24.86;37.01;103319.25;5022173;27;45618;-77
2023/02/07 10:27:57;;;;;;;;;3.00;3.00;;;;;24.88;36.99;103330.03;5023019;27;45786;-77
2023/02/07 10:30:28;;;;;;;;;5.33;4.67;;;;;24.85;36.81;103308.53;5027080;27;45519;-78
2023/02/07 10:33:00;;;;;;;;;8.67;7.67;;;;;24.91;37.11;103310.78;5020952;27;45412;-77
2023/02/07 10:35:38;;;;;;;;;4.67;4.00;;;;;24.97;37.06;103325.75;5031524;28;45397;-77
2023/02/07 10:38:20;;;;;;;;;3.67;3.67;;;;;25.02;36.90;103322.69;5030343;27;45513;-77
2023/02/07 10:41:24;;;;;;;;;3.33;3.33;;;;;25.04;36.99;103304.41;5029439;27;45373;-75
2023/02/07 10:43:50;;;;;;;;;4.00;4.00;;;;;25.14;36.47;103310.91;5014472;27;45543;-76
2023/02/07 10:46:19;;;;;;;;;4.00;3.67;;;;;25.23;36.80;103322.91;5029125;27;45854;-76
2023/02/07 10:48:45;;;;;;;;;4.67;3.00;;;;;25.29;36.77;103311.53;5027660;27;46418;-80
2023/02/07 10:51:27;;;;;;;;;3.00;3.00;;;;;25.39;36.61;103318.00;5030531;27;45503;-80
2023/02/07 10:54:01;;;;;;;;;3.00;3.00;;;;;25.42;36.34;103300.56;5067230;27;45463;-81
2023/02/07 10:56:29;;;;;;;;;3.00;2.00;;;;;25.57;36.51;103312.16;5029499;27;45532;-86
2023/02/07 10:58:58;;;;;;;;;3.33;3.33;;;;;25.67;36.52;103314.16;5030807;27;46159;-74
2023/02/07 11:01:27;;;;;;;;;4.00;3.67;;;;;25.72;36.59;103301.03;5029758;27;45470;-77
2023/02/07 11:03:53;;;;;;;;;3.67;3.33;;;;;25.78;36.39;103306.88;5029984;27;45331;-78
2023/02/07 11:06:31;;;;;;;;;5.67;5.33;;;;;25.73;36.12;103311.81;5028222;27;45506;-77
2023/02/07 11:09:19;;;;;;;;;3.00;3.00;;;;;25.77;36.04;103312.44;5030891;28;45439;-77
2023/02/07 11:11:52;;;;;;;;;2.67;2.67;;;;;25.77;35.86;103309.72;5037342;27;45407;-77
2023/02/07 11:14:25;;;;;;;;;3.00;3.00;;;;;25.75;35.97;103317.13;5029512;27;45409;-77
2023/02/07 11:16:53;;;;;;;;;5.33;3.33;;;;;25.74;35.84;103324.41;5021624;27;45557;-76
2023/02/07 11:19:25;;;;;;;;;2.67;2.67;;;;;25.76;35.62;103324.31;5030743;27;45809;-77
2023/02/07 11:22:02;;;;;;;;;5.00;3.33;;;;;25.76;35.47;103311.56;5033043;28;45421;-77
2023/02/07 11:24:35;;;;;;;;;2.33;2.33;;;;;25.86;35.70;103303.53;5033924;27;45396;-77
2023/02/07 11:27:14;;;;;;;;;2.33;2.33;;;;;25.91;35.44;103306.75;5026419;27;45574;-77
2023/02/07 11:30:02;;;;;;;;;2.00;2.00;;;;;25.96;35.82;103314.56;5030467;27;45469;-77
2023/02/07 11:32:28;;;;;;;;;5.33;3.00;;;;;25.97;35.87;103305.41;5028715;27;45410;-77
2023/02/07 11:35:01;;;;;;;;;4.00;3.00;;;;;25.96;35.37;103311.84;5022065;27;45647;-77
2023/02/07 11:37:38;;;;;;;;;3.33;2.67;;;;;25.99;35.61;103303.41;5030871;28;45493;-77
2023/02/07 11:40:18;;;;;;;;;2.00;2.00;;;;;26.04;35.28;103300.34;5019286;27;46157;-78
2023/02/07 11:42:47;;;;;;;;;3.33;3.00;;;;;26.08;35.39;103301.81;5025418;27;45588;-78
2023/02/07 11:45:21;;;;;;;;;3.00;2.33;;;;;26.11;35.50;103290.66;5043377;27;45389;-83
2023/02/07 11:47:51;;;;;;;;;3.33;3.33;;;;;26.12;35.51;103292.41;5033373;27;45347;-83
2023/02/07 11:50:28;;;;;;;;;4.00;2.67;;;;;26.14;35.54;103295.00;5029782;28;47299;-80
2023/02/07 11:52:57;;;;;;;;;2.67;2.67;;;;;26.19;35.39;103295.47;5033181;28;45481;-80
2023/02/07 11:55:41;;;;;;;;;3.33;3.33;;;;;26.24;35.00;103284.25;5034115;28;45339;-79
2023/02/07 11:58:20;;;;;;;;;5.00;3.67;;;;;26.31;35.07;103291.81;5015479;28;45431;-82
2023/02/07 12:00:46;;;;;;;;;3.00;3.00;;;;;26.36;35.27;103290.56;5024577;27;45424;-87
2023/02/07 12:03:23;;;;;;;;;2.33;2.33;;;;;26.46;34.88;103291.53;5032680;27;45387;-77
2023/02/07 12:05:52;;;;;;;;;3.00;3.00;;;;;26.51;35.07;103299.31;5033560;27;45444;-75
2023/02/07 12:08:22;;;;;;;;;8.67;6.33;;;;;26.54;35.22;103296.34;5029626;27;45542;-77
2023/02/07 12:10:53;;;;;;;;;5.00;2.33;;;;;26.54;34.63;103294.50;5014342;27;46269;-79
2023/02/07 12:13:27;;;;;;;;;6.33;4.00;;;;;26.53;35.11;103283.72;5027816;27;45430;-79
2023/02/07 12:16:03;;;;;;;;;3.67;3.67;;;;;26.52;35.08;103285.56;5013962;27;45424;-80
2023/02/07 12:18:34;;;;;;;;;4.67;4.33;;;;;26.54;35.09;103285.44;5013906;28;45519;-80
2023/02/07 12:21:13;;;;;;;;;4.00;4.00;;;;;26.56;35.03;103291.63;5029507;27;45559;-77
2023/02/07 12:23:53;;;;;;;;;3.00;3.00;;;;;26.57;34.77;103286.03;5056711;27;45782;-77
2023/02/07 12:26:48;;;;;;;;;4.33;3.33;;;;;26.60;35.08;103290.38;5102795;27;45459;-77
2023/02/07 12:29:42;;;;;;;;;3.00;3.00;;;;;26.60;34.87;103278.63;5073072;27;45561;-75
2023/02/07 12:32:29;;;;;;;;;2.33;2.33;;;;;26.41;34.41;103256.50;5005578;27;48072;-75
2023/02/07 12:35:21;;;;;;;;;5.00;3.33;;;;;26.57;34.51;103274.31;5015269;27;45504;-74
2023/02/07 12:37:52;;;;;;;;;5.67;3.00;;;;;26.56;34.58;103275.28;5032546;27;45523;-75
2023/02/07 12:40:20;;;;;;;;;2.00;2.00;;;;;26.57;34.28;103277.03;5032678;27;45296;-75
2023/02/07 12:43:02;;;;;;;;;3.00;3.00;;;;;26.36;34.68;103241.56;5032551;27;45350;-75
2023/02/07 12:46:09;;;;;;;;;2.67;2.67;;;;;26.57;34.21;103282.47;5029075;27;45369;-76
2023/02/07 12:49:13;;;;;;;;;2.67;2.67;;;;;26.57;34.06;103269.69;5033051;27;45437;-74
2023/02/07 12:51:57;;;;;;;;;4.00;3.00;;;;;26.58;34.34;103273.31;5070135;27;47623;-76
2023/02/07 12:54:38;;;;;;;;;5.33;3.33;;;;;26.57;34.68;103277.88;5069283;27;46374;-79
2023/02/07 12:57:11;;;;;;;;;2.00;2.00;;;;;26.54;34.05;103277.28;5054490;28;45428;-79
2023/02/07 12:59:58;;;;;;;;;2.00;2.00;;;;;26.55;34.23;103279.00;5062725;28;45416;-82
2023/02/07 13:02:45;;;;;;;;;1.33;1.33;;;;;26.52;34.11;103273.81;5074152;27;45463;-83
2023/02/07 13:05:41;;;;;;;;;3.00;3.00;;;;;26.47;34.07;103266.03;5074985;27;45721;-91
2023/02/07 13:08:15;;;;;;;;;2.67;2.67;;;;;26.42;34.52;103263.69;5072302;28;45417;-75
2023/02/07 13:11:45;;;;;;;;;4.33;3.00;;;;;26.40;34.56;103267.53;5064477;27;45541;-75
2023/02/07 13:14:16;;;;;;;;;3.00;2.00;;;;;26.40;34.29;103264.81;5032311;28;45515;-78
2023/02/07 13:17:02;;;;;;;;;4.00;2.00;;;;;26.41;34.06;103258.38;5035139;28;46521;-77
2023/02/07 13:19:49;;;;;;;;;3.00;3.00;;;;;26.43;34.46;103262.69;5034711;28;45467;-77
2023/02/07 13:22:38;;;;;;;;;3.00;3.00;;;;;26.48;34.34;103262.31;5022351;28;45594;-82
2023/02/07 13:25:12;;;;;;;;;1.33;1.33;;;;;26.52;34.03;103263.78;5029890;28;45662;-78
2023/02/07 13:27:39;;;;;;;;;3.00;3.00;;;;;26.58;33.89;103263.25;5018137;28;46377;-75
2023/02/07 13:30:05;;;;;;;;;2.00;2.00;;;;;26.60;34.02;103259.56;4974113;28;45885;-75
2023/02/07 13:32:30;;;;;;;;;3.00;3.00;;;;;26.58;33.80;103251.53;4982564;27;45460;-76
2023/02/07 13:34:58;;;;;;;;;2.00;2.00;;;;;26.52;34.02;103252.88;4984125;27;45545;-76
2023/02/07 13:37:36;;;;;;;;;2.00;2.00;;;;;26.40;33.78;103254.78;4989843;28;45333;-76
2023/02/07 13:40:22;;;;;;;;;3.00;3.00;;;;;26.35;34.14;103257.00;4989614;28;45642;-75
2023/02/07 13:43:29;;;;;;;;;3.00;3.00;;;;;26.35;34.20;103259.75;4989584;27;45513;-76
2023/02/07 13:46:18;;;;;;;;;2.00;2.00;;;;;26.34;34.04;103262.59;5011638;28;46055;-76
2023/02/07 13:49:03;;;;;;;;;4.00;4.00;;;;;26.34;33.70;103249.84;5031240;28;46367;-76
2023/02/07 13:51:36;;;;;;;;;4.00;4.00;;;;;26.36;33.74;103263.34;5032981;28;45516;-76
2023/02/07 13:54:49;;;;;;;;;3.33;3.33;;;;;26.30;33.92;103256.53;5032637;28;45679;-76
2023/02/07 14:00:26;;;;;;;;;3.00;3.00;;;;;26.16;33.73;103257.66;5048959;28;45374;-76
2023/02/07 14:02:55;;;;;;;;;3.00;3.00;;;;;26.10;33.44;103253.56;5050168;28;45577;-75
2023/02/07 14:05:30;;;;;;;;;3.00;3.00;;;;;26.06;33.84;103252.09;5052417;28;45541;-75
2023/02/07 14:08:01;;;;;;;;;3.67;3.33;;;;;26.02;33.14;103253.31;5044342;28;45448;-76
2023/02/07 14:10:44;;;;;;;;;2.67;2.67;;;;;25.92;33.00;103245.91;5045242;28;47053;-76
2023/02/07 14:13:26;;;;;;;;;2.33;2.33;;;;;25.79;33.65;103245.19;5051796;28;45390;-76
2023/02/07 14:15:54;;;;;;;;;2.00;2.00;;;;;25.79;33.13;103250.63;5036074;28;45355;-75
2023/02/07 14:18:45;;;;;;;;;4.00;4.00;;;;;25.72;33.43;103255.69;5051066;28;45718;-75
2023/02/07 14:21:20;;;;;;;;;2.00;2.00;;;;;25.63;33.43;103251.81;5038356;28;46068;-76
2023/02/07 14:23:57;;;;;;;;;3.67;3.67;;;;;25.50;33.05;103254.63;5025278;27;45642;-76
2023/02/07 14:26:38;;;;;;;;;5.00;5.00;;;;;25.40;33.52;103253.63;5028877;27;45375;-77
2023/02/07 14:29:18;;;;;;;;;4.00;4.00;;;;;25.35;33.35;103258.56;5071453;27;45946;-83
2023/02/07 14:31:55;;;;;;;;;8.00;5.00;;;;;25.28;33.31;103250.03;5096121;27;46485;-79
2023/02/07 14:34:23;;;;;;;;;3.00;3.00;;;;;25.23;33.50;103253.13;5032542;27;45481;-84
2023/02/07 14:36:49;;;;;;;;;3.33;3.00;;;;;25.13;33.46;103241.19;5012451;28;45536;-86
2023/02/07 14:39:18;;;;;;;;;6.00;4.00;;;;;25.17;33.45;103253.56;5027004;27;45431;-88
2023/02/07 14:41:46;;;;;;;;;3.00;3.00;;;;;25.12;33.32;103245.78;5029731;28;46033;-87
2023/02/07 14:44:36;;;;;;;;;5.00;5.00;;;;;25.08;33.73;103246.13;5030932;28;45344;-88
2023/02/07 14:47:05;;;;;;;;;4.67;4.67;;;;;25.05;33.42;103247.22;5017925;28;45517;-79
2023/02/07 14:49:44;;;;;;;;;4.00;3.00;;;;;25.08;33.45;103243.41;5025952;27;45525;-79
2023/02/07 14:52:14;;;;;;;;;5.00;4.33;;;;;25.12;33.18;103242.19;5036106;27;46319;-76
2023/02/07 14:54:39;;;;;;;;;5.33;4.67;;;;;25.16;33.56;103245.53;5030815;28;45482;-77
2023/02/07 14:57:19;;;;;;;;;7.00;5.33;;;;;25.18;33.36;103244.41;5031445;28;45398;-80
2023/02/07 14:59:59;;;;;;;;;3.33;3.33;;;;;25.20;33.39;103241.59;5027096;27;45518;-85
2023/02/07 15:02:33;;;;;;;;;2.33;2.33;;;;;25.24;33.26;103243.97;5029537;28;46080;-79
2023/02/07 15:05:14;;;;;;;;;3.00;3.00;;;;;25.25;33.57;103248.41;5074562;27;45381;-78
2023/02/07 15:07:42;;;;;;;;;4.00;4.00;;;;;25.25;33.74;103242.97;5136698;27;45433;-77
2023/02/07 15:10:35;;;;;;;;;3.00;3.00;;;;;25.27;33.90;103249.16;5032156;27;45432;-79
2023/02/07 15:13:04;;;;;;;;;5.00;3.33;;;;;25.29;33.62;103251.75;5011390;28;45626;-78
2023/02/07 15:15:53;;;;;;;;;4.33;3.00;;;;;25.33;33.45;103249.66;5011202;28;45463;-77
2023/02/07 15:18:22;;;;;;;;;2.33;2.33;;;;;25.34;33.84;103254.97;5039105;27;45417;-79
2023/02/07 15:20:55;;;;;;;;;4.67;4.67;;;;;25.35;33.82;103253.13;5038611;28;45464;-78
2023/02/07 15:23:23;;;;;;;;;2.67;2.67;;;;;25.35;33.51;103258.56;5018508;27;48348;-76
2023/02/07 15:25:49;;;;;;;;;3.33;3.33;;;;;25.32;33.53;103256.06;5041495;28;45358;-72
2023/02/07 15:28:29;;;;;;;;;3.00;3.00;;;;;25.27;33.57;103246.44;5043693;27;45444;-71
2023/02/07 15:31:01;;;;;;;;;6.00;4.00;;;;;25.30;33.80;103252.63;5027101;27;45484;-75
2023/02/07 15:33:35;;;;;;;;;3.00;3.00;;;;;25.30;33.60;103239.03;5032861;28;45381;-74
2023/02/07 15:36:23;;;;;;;;;4.33;4.00;;;;;25.32;33.69;103242.47;5031583;27;45470;-78
2023/02/07 15:38:49;;;;;;;;;3.00;3.00;;;;;25.32;33.67;103234.31;5033956;27;45517;-77
2023/02/07 15:41:14;;;;;;;;;3.33;2.00;;;;;25.33;33.87;103236.06;5027269;27;45688;-77
2023/02/07 15:43:56;;;;;;;;;3.00;3.00;;;;;25.36;33.77;103236.69;5034263;27;45956;-77
2023/02/07 15:46:21;;;;;;;;;3.00;3.00;;;;;25.40;34.07;103231.88;5030494;27;45412;-82
2023/02/07 15:48:53;;;;;;;;;6.00;6.00;;;;;25.43;33.83;103219.91;5033806;27;45424;-76
2023/02/07 15:51:24;;;;;;;;;3.00;3.00;;;;;25.46;33.56;103223.22;5035701;28;45432;-83
2023/02/07 15:53:53;;;;;;;;;5.33;3.00;;;;;25.47;33.88;103224.09;5021096;28;45408;-84
2023/02/07 15:56:19;;;;;;;;;3.00;3.00;;;;;25.50;33.82;103230.16;5029606;28;45514;-83
2023/02/07 15:58:46;;;;;;;;;3.00;3.00;;;;;25.50;33.89;103230.16;5028782;28;45494;-72
2023/02/07 16:01:23;;;;;;;;;5.00;3.33;;;;;25.55;33.75;103232.56;5030471;27;45507;-70
2023/02/07 16:03:48;;;;;;;;;5.00;3.33;;;;;25.57;33.59;103226.97;5020652;27;46388;-70
2023/02/07 16:06:19;;;;;;;;;4.00;4.00;;;;;25.62;33.59;103238.34;5036542;27;45441;-70
2023/02/07 16:08:49;;;;;;;;;4.00;3.00;;;;;25.67;33.95;103243.44;5032309;28;45480;-71
2023/02/07 16:11:29;;;;;;;;;3.00;3.00;;;;;25.64;33.99;103228.22;5015074;27;45432;-69
2023/02/07 16:14:14;;;;;;;;;4.00;2.67;;;;;25.64;33.64;103233.66;5014894;27;46156;-71
2023/02/07 16:16:53;;;;;;;;;6.00;4.33;;;;;25.62;34.14;103235.63;5035955;27;45586;-72
2023/02/07 16:19:21;;;;;;;;;6.33;5.67;;;;;25.64;34.31;103230.94;5011167;27;45445;-70
2023/02/07 16:21:54;;;;;;;;;3.00;3.00;;;;;25.66;33.71;103245.28;5023162;27;45314;-68
2023/02/07 16:24:26;;;;;;;;;5.00;5.00;;;;;25.64;33.79;103234.56;5044519;27;45849;-69
2023/02/07 16:26:52;;;;;;;;;6.67;5.00;;;;;25.60;33.35;103230.34;5010737;27;46132;-69
2023/02/07 16:29:20;;;;;;;;;4.67;4.67;;;;;25.55;33.66;103238.00;5032996;28;45581;-71
2023/02/07 16:31:47;;;;;;;;;5.33;5.00;;;;;25.50;33.68;103254.63;5024831;27;45512;-82
2023/02/07 16:34:15;;;;;;;;;4.00;2.33;;;;;25.41;33.46;103249.06;5014802;27;45516;-77
2023/02/07 16:36:41;;;;;;;;;6.67;5.67;;;;;25.43;33.64;103257.97;5025838;27;45664;-87
2023/02/07 16:39:07;;;;;;;;;6.00;6.00;;;;;25.47;33.59;103264.88;5023673;28;45711;-76
2023/02/07 16:41:35;;;;;;;;;5.00;5.00;;;;;25.49;33.02;103263.78;5037055;28;45464;-80
2023/02/07 16:44:04;;;;;;;;;7.00;5.00;;;;;25.49;33.43;103260.19;5046054;27;46451;-79
2023/02/07 16:46:30;;;;;;;;;6.00;6.00;;;;;25.57;33.27;103274.09;5029767;27;45454;-74
2023/02/07 16:48:55;;;;;;;;;10.33;7.33;;;;;25.62;33.28;103279.13;5026662;27;45367;-77
2023/02/07 16:51:20;;;;;;;;;6.33;5.00;;;;;25.63;33.31;103280.91;5015579;27;45360;-76
2023/02/07 16:53:46;;;;;;;;;5.67;5.33;;;;;25.68;33.18;103277.81;5006039;28;47307;-74
2023/02/07 16:56:17;;;;;;;;;2.67;2.67;;;;;25.67;33.43;103287.81;5013135;28;45876;-73
2023/02/07 16:58:43;;;;;;;;;6.67;6.33;;;;;25.68;32.85;103292.28;5025699;27;45489;-77
2023/02/07 17:01:16;;;;;;;;;10.00;7.00;;;;;25.62;33.11;103287.28;5028999;28;45583;-76
2023/02/07 17:03:41;;;;;;;;;5.67;5.00;;;;;25.53;32.61;103292.47;5031483;28;45465;-76
2023/02/07 17:06:12;;;;;;;;;5.00;5.00;;;;;25.47;33.06;103294.81;5031861;28;45595;-76
2023/02/07 17:08:37;;;;;;;;;5.67;5.67;;;;;25.42;33.34;103302.44;5031598;28;45508;-77
2023/02/07 17:11:05;;;;;;;;;6.33;4.00;;;;;25.41;32.88;103301.56;5021943;28;50497;-76
2023/02/07 17:13:30;;;;;;;;;4.67;4.33;;;;;25.38;33.01;103305.41;5033080;28;46444;-77
2023/02/07 17:15:57;;;;;;;;;5.00;5.00;;;;;25.34;32.80;103312.06;5052337;28;45578;-77
2023/02/07 17:18:23;;;;;;;;;7.33;7.33;;;;;25.30;32.71;103321.41;5052996;28;45480;-77
2023/02/07 17:20:49;;;;;;;;;7.00;7.00;;;;;25.22;32.64;103300.28;5046655;28;45828;-85
2023/02/07 17:23:14;;;;;;;;;8.00;6.67;;;;;25.26;32.70;103307.22;5012693;28;47171;-78
2023/02/07 17:25:41;;;;;;;;;4.67;4.67;;;;;25.27;32.89;103319.81;5031967;28;45457;-78
2023/02/07 17:28:11;;;;;;;;;8.67;8.67;;;;;25.28;32.50;103315.25;5009162;27;45405;-75
2023/02/07 17:30:39;;;;;;;;;9.00;7.33;;;;;25.27;32.66;103319.81;5023767;28;46168;-76
2023/02/07 17:33:05;;;;;;;;;6.00;5.67;;;;;25.28;32.79;103320.69;5024998;28;45809;-75
2023/02/07 17:35:31;;;;;;;;;9.33;7.67;;;;;25.28;33.03;103312.53;5024082;28;45452;-75
2023/02/07 17:37:56;;;;;;;;;6.00;6.00;;;;;25.29;32.71;103313.41;5026091;28;45564;-74
2023/02/07 17:40:22;;;;;;;;;7.33;6.33;;;;;25.33;32.83;103318.47;5030111;28;45306;-78
2023/02/07 17:42:47;;;;;;;;;8.33;6.67;;;;;25.34;32.86;103317.50;5022907;27;46773;-77
2023/02/07 17:45:13;;;;;;;;;5.00;5.00;;;;;25.35;33.02;103321.97;5030373;28;45892;-77
2023/02/07 17:47:38;;;;;;;;;6.00;6.00;;;;;25.37;32.59;103322.69;5032389;28;45433;-75
2023/02/07 17:50:04;;;;;;;;;7.33;5.67;;;;;25.39;32.87;103322.59;5034514;28;48011;-73
2023/02/07 17:52:29;;;;;;;;;6.33;5.00;;;;;25.35;33.03;103312.94;5026515;27;46257;-74
2023/02/07 17:54:55;;;;;;;;;8.67;8.00;;;;;25.42;33.26;103324.19;5028757;27;45484;-73
2023/02/07 17:57:20;;;;;;;;;8.33;6.33;;;;;25.39;32.68;103318.00;5022004;28;45374;-71
2023/02/07 17:59:46;;;;;;;;;8.00;7.00;;;;;25.46;33.12;103320.25;5038134;28;45447;-77
2023/02/07 18:02:11;;;;;;;;;8.33;6.33;;;;;25.45;33.34;103324.81;5043071;28;46165;-78
2023/02/07 18:04:36;;;;;;;;;7.00;5.00;;;;;25.45;33.17;103335.69;5022118;28;45417;-77
2023/02/07 18:07:02;;;;;;;;;7.67;7.00;;;;;25.48;32.84;103342.75;5049408;28;45448;-79
2023/02/07 18:09:27;;;;;;;;;9.00;7.00;;;;;25.49;32.98;103331.75;5029717;28;45435;-76
2023/02/07 18:11:52;;;;;;;;;4.33;4.33;;;;;25.47;33.03;103331.00;5041658;28;46543;-80
2023/02/07 18:14:18;;;;;;;;;6.33;6.33;;;;;25.47;33.42;103331.00;5028194;27;47142;-75
2023/02/07 18:16:43;;;;;;;;;6.67;5.00;;;;;25.50;33.22;103327.19;5032349;28;45434;-74
2023/02/07 18:19:14;;;;;;;;;6.00;5.00;;;;;25.53;33.04;103333.25;5012225;28;45381;-74
2023/02/07 18:21:40;;;;;;;;;6.67;5.00;;;;;25.49;33.58;103314.56;5014379;28;46281;-75
2023/02/07 18:24:05;;;;;;;;;5.67;5.67;;;;;25.60;33.36;103332.78;5012252;28;45510;-76
2023/02/07 18:26:31;;;;;;;;;5.33;5.33;;;;;25.61;33.42;103326.38;5032825;28;45494;-75
2023/02/07 18:28:56;;;;;;;;;5.00;5.00;;;;;25.62;33.19;103328.97;5031607;28;45500;-78
2023/02/07 18:31:23;;;;;;;;;6.00;5.00;;;;;25.65;33.30;103333.31;5035604;28;47497;-80
2023/02/07 18:33:50;;;;;;;;;5.33;5.00;;;;;25.67;33.75;103322.31;5026937;28;45431;-74
2023/02/07 18:36:17;;;;;;;;;6.00;5.00;;;;;25.71;33.54;103334.69;5030052;28;45392;-73
2023/02/07 18:38:42;;;;;;;;;6.00;5.00;;;;;25.70;33.75;103327.50;5029053;27;45972;-75
2023/02/07 18:41:09;;;;;;;;;8.67;6.67;;;;;25.72;33.78;103326.41;5028299;28;46215;-73
2023/02/07 18:43:36;;;;;;;;;5.67;5.67;;;;;25.74;33.47;103326.25;5009546;27;46157;-74
2023/02/07 18:46:15;;;;;;;;;9.33;7.00;;;;;25.75;33.69;103328.03;5028536;27;45548;-78
2023/02/07 18:48:43;;;;;;;;;8.00;6.00;;;;;25.76;33.45;103325.16;5022654;28;45977;-73
2023/02/07 18:51:11;;;;;;;;;7.33;6.67;;;;;25.75;33.80;103328.03;5024812;27;47087;-75